sensor_id;sensor_type;location;lat;lon;timestamp;P1;durP1;ratioP1;P2;durP2;ratioP2
71910;SDS011;59783;52.232;5.170;2023-02-15T00:01:07;70.00;;;42.77;;
71910;SDS011;59783;52.232;5.170;2023-02-15T00:03:33;75.97;;;42.75;;
71910;SDS011;59783;52.232;5.170;2023-02-15T00:05:58;74.85;;;43.13;;
71910;SDS011;59783;52.232;5.170;2023-02-15T00:08:23;73.63;;;43.13;;
71910;SDS011;59783;52.232;5.170;2023-02-15T00:10:48;69.50;;;42.13;;
71910;SDS011;59783;52.232;5.170;2023-02-15T00:13:14;74.63;;;44.10;;
71910;SDS011;59783;52.232;5.170;2023-02-15T00:15:39;73.30;;;42.10;;
71910;SDS011;59783;52.232;5.170;2023-02-15T00:18:04;74.50;;;43.53;;
71910;SDS011;59783;52.232;5.170;2023-02-15T00:20:29;76.57;;;44.80;;
71910;SDS011;59783;52.232;5.170;2023-02-15T00:22:54;70.07;;;41.03;;
71910;SDS011;59783;52.232;5.170;2023-02-15T00:25:20;72.70;;;40.87;;
71910;SDS011;59783;52.232;5.170;2023-02-15T00:27:45;78.07;;;44.17;;
71910;SDS011;59783;52.232;5.170;2023-02-15T00:30:10;67.27;;;41.93;;
71910;SDS011;59783;52.232;5.170;2023-02-15T00:32:35;69.00;;;40.65;;
71910;SDS011;59783;52.232;5.170;2023-02-15T00:35:01;71.90;;;40.47;;
71910;SDS011;59783;52.232;5.170;2023-02-15T00:37:26;75.10;;;42.63;;
71910;SDS011;59783;52.232;5.170;2023-02-15T00:39:51;72.40;;;41.30;;
71910;SDS011;59783;52.232;5.170;2023-02-15T00:42:16;67.53;;;40.87;;
71910;SDS011;59783;52.232;5.170;2023-02-15T00:44:41;67.07;;;40.90;;
71910;SDS011;59783;52.232;5.170;2023-02-15T00:47:06;70.03;;;40.67;;
71910;SDS011;59783;52.232;5.170;2023-02-15T00:49:32;70.53;;;39.83;;
71910;SDS011;59783;52.232;5.170;2023-02-15T00:51:57;69.80;;;40.73;;
71910;SDS011;59783;52.232;5.170;2023-02-15T00:54:22;73.20;;;40.97;;
71910;SDS011;59783;52.232;5.170;2023-02-15T00:56:47;70.63;;;42.30;;
71910;SDS011;59783;52.232;5.170;2023-02-15T00:59:12;70.83;;;40.70;;
71910;SDS011;59783;52.232;5.170;2023-02-15T01:01:38;70.50;;;42.25;;
71910;SDS011;59783;52.232;5.170;2023-02-15T01:04:03;65.83;;;41.03;;
71910;SDS011;59783;52.232;5.170;2023-02-15T01:06:28;67.23;;;42.60;;
71910;SDS011;59783;52.232;5.170;2023-02-15T01:08:53;74.03;;;41.00;;
71910;SDS011;59783;52.232;5.170;2023-02-15T01:11:19;68.87;;;41.43;;
71910;SDS011;59783;52.232;5.170;2023-02-15T01:13:47;69.97;;;42.97;;
71910;SDS011;59783;52.232;5.170;2023-02-15T01:16:12;68.25;;;42.28;;
71910;SDS011;59783;52.232;5.170;2023-02-15T01:18:37;70.10;;;43.17;;
71910;SDS011;59783;52.232;5.170;2023-02-15T01:21:18;69.33;;;43.63;;
71910;SDS011;59783;52.232;5.170;2023-02-15T01:23:44;76.25;;;43.40;;
71910;SDS011;59783;52.232;5.170;2023-02-15T01:26:09;73.67;;;44.70;;
71910;SDS011;59783;52.232;5.170;2023-02-15T01:28:35;73.35;;;43.58;;
71910;SDS011;59783;52.232;5.170;2023-02-15T01:31:04;74.53;;;42.22;;
71910;SDS011;59783;52.232;5.170;2023-02-15T01:33:29;69.10;;;44.30;;
71910;SDS011;59783;52.232;5.170;2023-02-15T01:35:58;75.80;;;42.37;;
71910;SDS011;59783;52.232;5.170;2023-02-15T01:38:23;72.95;;;43.20;;
71910;SDS011;59783;52.232;5.170;2023-02-15T01:40:52;65.43;;;41.37;;
71910;SDS011;59783;52.232;5.170;2023-02-15T01:43:17;72.25;;;43.90;;
71910;SDS011;59783;52.232;5.170;2023-02-15T01:45:43;69.90;;;41.80;;
71910;SDS011;59783;52.232;5.170;2023-02-15T01:48:21;76.72;;;42.17;;
71910;SDS011;59783;52.232;5.170;2023-02-15T01:50:52;71.00;;;42.83;;
71910;SDS011;59783;52.232;5.170;2023-02-15T01:58:13;61.17;;;39.63;;
71910;SDS011;59783;52.232;5.170;2023-02-15T02:00:39;70.43;;;42.40;;
71910;SDS011;59783;52.232;5.170;2023-02-15T02:03:04;66.07;;;41.70;;
71910;SDS011;59783;52.232;5.170;2023-02-15T02:05:29;68.17;;;42.47;;
71910;SDS011;59783;52.232;5.170;2023-02-15T02:07:56;70.28;;;42.08;;
71910;SDS011;59783;52.232;5.170;2023-02-15T02:10:22;67.05;;;40.88;;
71910;SDS011;59783;52.232;5.170;2023-02-15T02:12:48;69.70;;;43.22;;
71910;SDS011;59783;52.232;5.170;2023-02-15T02:15:15;67.88;;;41.70;;
71910;SDS011;59783;52.232;5.170;2023-02-15T02:18:24;64.43;;;40.83;;
71910;SDS011;59783;52.232;5.170;2023-02-15T02:20:32;69.00;;;40.90;;
71910;SDS011;59783;52.232;5.170;2023-02-15T02:30:46;63.57;;;39.67;;
71910;SDS011;59783;52.232;5.170;2023-02-15T02:33:21;64.43;;;39.58;;
71910;SDS011;59783;52.232;5.170;2023-02-15T02:38:23;63.63;;;39.47;;
71910;SDS011;59783;52.232;5.170;2023-02-15T02:43:18;62.37;;;37.63;;
71910;SDS011;59783;52.232;5.170;2023-02-15T02:45:57;66.40;;;38.42;;
71910;SDS011;59783;52.232;5.170;2023-02-15T02:48:24;62.60;;;38.20;;
71910;SDS011;59783;52.232;5.170;2023-02-15T02:50:50;65.50;;;39.65;;
71910;SDS011;59783;52.232;5.170;2023-02-15T02:53:15;65.67;;;38.10;;
71910;SDS011;59783;52.232;5.170;2023-02-15T02:55:43;60.47;;;37.17;;
71910;SDS011;59783;52.232;5.170;2023-02-15T03:00:36;64.23;;;39.83;;
71910;SDS011;59783;52.232;5.170;2023-02-15T03:03:03;66.05;;;39.42;;
71910;SDS011;59783;52.232;5.170;2023-02-15T03:05:30;61.10;;;38.05;;
71910;SDS011;59783;52.232;5.170;2023-02-15T03:07:57;58.95;;;39.38;;
71910;SDS011;59783;52.232;5.170;2023-02-15T03:10:25;60.03;;;38.35;;
71910;SDS011;59783;52.232;5.170;2023-02-15T03:12:52;67.45;;;42.25;;
71910;SDS011;59783;52.232;5.170;2023-02-15T03:15:36;64.78;;;41.90;;
71910;SDS011;59783;52.232;5.170;2023-02-15T03:18:22;65.47;;;40.88;;
71910;SDS011;59783;52.232;5.170;2023-02-15T03:20:50;64.93;;;41.00;;
71910;SDS011;59783;52.232;5.170;2023-02-15T03:23:18;59.15;;;39.33;;
71910;SDS011;59783;52.232;5.170;2023-02-15T03:25:46;62.60;;;40.30;;
71910;SDS011;59783;52.232;5.170;2023-02-15T03:28:19;66.65;;;41.47;;
71910;SDS011;59783;52.232;5.170;2023-02-15T03:30:46;68.10;;;41.92;;
71910;SDS011;59783;52.232;5.170;2023-02-15T03:33:13;67.03;;;40.05;;
71910;SDS011;59783;52.232;5.170;2023-02-15T03:35:43;62.13;;;40.90;;
71910;SDS011;59783;52.232;5.170;2023-02-15T03:38:10;60.35;;;38.20;;
71910;SDS011;59783;52.232;5.170;2023-02-15T03:40:40;65.70;;;40.22;;
71910;SDS011;59783;52.232;5.170;2023-02-15T03:43:43;64.45;;;38.22;;
71910;SDS011;59783;52.232;5.170;2023-02-15T03:46:16;60.03;;;37.33;;
71910;SDS011;59783;52.232;5.170;2023-02-15T03:48:44;59.55;;;38.38;;
71910;SDS011;59783;52.232;5.170;2023-02-15T03:51:12;60.85;;;37.35;;
71910;SDS011;59783;52.232;5.170;2023-02-15T03:53:57;56.28;;;35.92;;
71910;SDS011;59783;52.232;5.170;2023-02-15T03:56:24;68.40;;;39.10;;
71910;SDS011;59783;52.232;5.170;2023-02-15T03:58:49;60.35;;;38.63;;
71910;SDS011;59783;52.232;5.170;2023-02-15T04:02:34;62.33;;;39.45;;
71910;SDS011;59783;52.232;5.170;2023-02-15T04:04:29;67.97;;;39.53;;
71910;SDS011;59783;52.232;5.170;2023-02-15T04:06:55;64.75;;;37.55;;
71910;SDS011;59783;52.232;5.170;2023-02-15T04:09:21;59.77;;;36.87;;
71910;SDS011;59783;52.232;5.170;2023-02-15T04:12:04;62.70;;;38.30;;
71910;SDS011;59783;52.232;5.170;2023-02-15T04:14:29;63.20;;;37.33;;
71910;SDS011;59783;52.232;5.170;2023-02-15T04:17:13;64.18;;;38.78;;
71910;SDS011;59783;52.232;5.170;2023-02-15T04:19:38;60.37;;;37.23;;
71910;SDS011;59783;52.232;5.170;2023-02-15T04:22:22;62.65;;;37.33;;
71910;SDS011;59783;52.232;5.170;2023-02-15T04:25:06;66.95;;;38.05;;
71910;SDS011;59783;52.232;5.170;2023-02-15T04:27:35;64.90;;;40.80;;
71910;SDS011;59783;52.232;5.170;2023-02-15T04:30:01;69.50;;;38.75;;
71910;SDS011;59783;52.232;5.170;2023-02-15T04:32:26;64.07;;;37.50;;
71910;SDS011;59783;52.232;5.170;2023-02-15T04:34:52;61.08;;;38.38;;
71910;SDS011;59783;52.232;5.170;2023-02-15T04:37:17;68.15;;;37.63;;
71910;SDS011;59783;52.232;5.170;2023-02-15T04:39:42;59.93;;;37.80;;
71910;SDS011;59783;52.232;5.170;2023-02-15T04:42:07;64.67;;;37.17;;
71910;SDS011;59783;52.232;5.170;2023-02-15T04:44:33;68.30;;;37.23;;
71910;SDS011;59783;52.232;5.170;2023-02-15T04:46:58;59.90;;;36.40;;
71910;SDS011;59783;52.232;5.170;2023-02-15T04:49:23;64.93;;;36.93;;
71910;SDS011;59783;52.232;5.170;2023-02-15T04:51:48;60.40;;;36.13;;
71910;SDS011;59783;52.232;5.170;2023-02-15T04:54:13;55.73;;;36.33;;
71910;SDS011;59783;52.232;5.170;2023-02-15T04:56:38;63.43;;;37.97;;
71910;SDS011;59783;52.232;5.170;2023-02-15T04:59:04;60.55;;;37.47;;
71910;SDS011;59783;52.232;5.170;2023-02-15T05:01:29;53.50;;;36.43;;
71910;SDS011;59783;52.232;5.170;2023-02-15T05:03:54;62.17;;;36.93;;
71910;SDS011;59783;52.232;5.170;2023-02-15T05:06:19;57.92;;;35.30;;
71910;SDS011;59783;52.232;5.170;2023-02-15T05:08:44;58.40;;;35.83;;
71910;SDS011;59783;52.232;5.170;2023-02-15T05:11:10;55.40;;;36.10;;
71910;SDS011;59783;52.232;5.170;2023-02-15T05:13:35;59.88;;;36.72;;
71910;SDS011;59783;52.232;5.170;2023-02-15T05:16:00;54.97;;;36.00;;
71910;SDS011;59783;52.232;5.170;2023-02-15T05:18:25;50.77;;;33.47;;
71910;SDS011;59783;52.232;5.170;2023-02-15T05:20:51;52.73;;;34.70;;
71910;SDS011;59783;52.232;5.170;2023-02-15T05:23:16;56.03;;;35.23;;
71910;SDS011;59783;52.232;5.170;2023-02-15T05:25:45;56.23;;;35.03;;
71910;SDS011;59783;52.232;5.170;2023-02-15T05:28:29;56.72;;;33.28;;
71910;SDS011;59783;52.232;5.170;2023-02-15T05:33:25;52.72;;;32.95;;
71910;SDS011;59783;52.232;5.170;2023-02-15T05:35:51;57.53;;;35.87;;
71910;SDS011;59783;52.232;5.170;2023-02-15T05:38:16;58.33;;;35.70;;
71910;SDS011;59783;52.232;5.170;2023-02-15T05:40:41;54.40;;;35.67;;
71910;SDS011;59783;52.232;5.170;2023-02-15T05:43:06;57.63;;;36.57;;
71910;SDS011;59783;52.232;5.170;2023-02-15T05:45:31;60.37;;;34.80;;
71910;SDS011;59783;52.232;5.170;2023-02-15T05:47:57;59.40;;;35.20;;
71910;SDS011;59783;52.232;5.170;2023-02-15T05:50:23;54.70;;;34.45;;
71910;SDS011;59783;52.232;5.170;2023-02-15T05:52:48;57.05;;;35.78;;
71910;SDS011;59783;52.232;5.170;2023-02-15T05:55:13;50.00;;;33.63;;
71910;SDS011;59783;52.232;5.170;2023-02-15T05:57:39;54.13;;;35.55;;
71910;SDS011;59783;52.232;5.170;2023-02-15T06:00:04;55.37;;;36.53;;
71910;SDS011;59783;52.232;5.170;2023-02-15T06:02:33;56.13;;;35.28;;
71910;SDS011;59783;52.232;5.170;2023-02-15T06:04:58;57.38;;;33.80;;
71910;SDS011;59783;52.232;5.170;2023-02-15T06:07:23;53.38;;;35.88;;
71910;SDS011;59783;52.232;5.170;2023-02-15T06:09:49;63.83;;;36.43;;
71910;SDS011;59783;52.232;5.170;2023-02-15T06:12:14;51.13;;;32.53;;
71910;SDS011;59783;52.232;5.170;2023-02-15T06:14:39;56.50;;;35.37;;
71910;SDS011;59783;52.232;5.170;2023-02-15T06:17:04;55.77;;;34.20;;
71910;SDS011;59783;52.232;5.170;2023-02-15T06:19:29;53.57;;;35.00;;
71910;SDS011;59783;52.232;5.170;2023-02-15T06:21:55;52.37;;;32.37;;
71910;SDS011;59783;52.232;5.170;2023-02-15T06:24:20;52.80;;;34.63;;
71910;SDS011;59783;52.232;5.170;2023-02-15T06:26:45;52.13;;;33.07;;
71910;SDS011;59783;52.232;5.170;2023-02-15T06:29:10;50.87;;;32.30;;
71910;SDS011;59783;52.232;5.170;2023-02-15T06:31:35;54.47;;;32.50;;
71910;SDS011;59783;52.232;5.170;2023-02-15T06:34:00;55.50;;;34.00;;
71910;SDS011;59783;52.232;5.170;2023-02-15T06:36:29;68.65;;;33.65;;
71910;SDS011;59783;52.232;5.170;2023-02-15T06:38:54;54.28;;;31.92;;
71910;SDS011;59783;52.232;5.170;2023-02-15T06:41:20;53.95;;;33.47;;
71910;SDS011;59783;52.232;5.170;2023-02-15T06:43:45;51.50;;;35.05;;
71910;SDS011;59783;52.232;5.170;2023-02-15T06:46:11;53.00;;;33.38;;
71910;SDS011;59783;52.232;5.170;2023-02-15T06:48:36;60.83;;;33.40;;
71910;SDS011;59783;52.232;5.170;2023-02-15T06:51:01;52.63;;;33.27;;
71910;SDS011;59783;52.232;5.170;2023-02-15T06:53:26;53.33;;;34.60;;
71910;SDS011;59783;52.232;5.170;2023-02-15T06:55:51;53.53;;;32.47;;
71910;SDS011;59783;52.232;5.170;2023-02-15T06:58:17;54.37;;;34.87;;
71910;SDS011;59783;52.232;5.170;2023-02-15T07:00:42;58.87;;;33.90;;
71910;SDS011;59783;52.232;5.170;2023-02-15T07:03:07;56.43;;;33.60;;
71910;SDS011;59783;52.232;5.170;2023-02-15T07:05:33;51.35;;;31.70;;
71910;SDS011;59783;52.232;5.170;2023-02-15T07:07:59;57.50;;;36.33;;
71910;SDS011;59783;52.232;5.170;2023-02-15T07:10:24;59.80;;;34.42;;
71910;SDS011;59783;52.232;5.170;2023-02-15T07:12:50;63.17;;;33.83;;
71910;SDS011;59783;52.232;5.170;2023-02-15T07:15:16;57.10;;;35.97;;
71910;SDS011;59783;52.232;5.170;2023-02-15T07:17:42;53.63;;;34.92;;
71910;SDS011;59783;52.232;5.170;2023-02-15T07:20:13;56.97;;;34.30;;
71910;SDS011;59783;52.232;5.170;2023-02-15T07:22:38;56.58;;;35.92;;
71910;SDS011;59783;52.232;5.170;2023-02-15T07:25:04;57.03;;;33.77;;
71910;SDS011;59783;52.232;5.170;2023-02-15T07:27:30;62.80;;;36.75;;
71910;SDS011;59783;52.232;5.170;2023-02-15T07:29:56;62.42;;;36.33;;
71910;SDS011;59783;52.232;5.170;2023-02-15T07:32:21;58.63;;;35.93;;
71910;SDS011;59783;52.232;5.170;2023-02-15T07:34:46;55.67;;;35.23;;
71910;SDS011;59783;52.232;5.170;2023-02-15T07:37:11;57.67;;;34.53;;
71910;SDS011;59783;52.232;5.170;2023-02-15T07:39:36;57.07;;;36.23;;
71910;SDS011;59783;52.232;5.170;2023-02-15T07:42:01;67.70;;;38.93;;
71910;SDS011;59783;52.232;5.170;2023-02-15T07:44:27;58.67;;;38.47;;
71910;SDS011;59783;52.232;5.170;2023-02-15T07:46:52;62.57;;;37.60;;
71910;SDS011;59783;52.232;5.170;2023-02-15T07:49:17;59.33;;;36.50;;
71910;SDS011;59783;52.232;5.170;2023-02-15T07:51:42;61.83;;;36.63;;
71910;SDS011;59783;52.232;5.170;2023-02-15T07:54:07;63.43;;;36.30;;
71910;SDS011;59783;52.232;5.170;2023-02-15T07:56:32;56.57;;;36.00;;
71910;SDS011;59783;52.232;5.170;2023-02-15T07:58:58;60.40;;;35.97;;
71910;SDS011;59783;52.232;5.170;2023-02-15T08:01:34;60.13;;;37.65;;
71910;SDS011;59783;52.232;5.170;2023-02-15T08:04:00;64.07;;;38.92;;
71910;SDS011;59783;52.232;5.170;2023-02-15T08:06:26;63.38;;;38.90;;
71910;SDS011;59783;52.232;5.170;2023-02-15T08:08:52;64.30;;;38.83;;
71910;SDS011;59783;52.232;5.170;2023-02-15T08:14:05;64.63;;;39.80;;
71910;SDS011;59783;52.232;5.170;2023-02-15T08:21:31;64.72;;;40.10;;
71910;SDS011;59783;52.232;5.170;2023-02-15T08:23:58;65.95;;;40.67;;
71910;SDS011;59783;52.232;5.170;2023-02-15T08:26:23;67.43;;;40.50;;
71910;SDS011;59783;52.232;5.170;2023-02-15T08:28:50;64.93;;;38.90;;
71910;SDS011;59783;52.232;5.170;2023-02-15T08:31:15;66.63;;;38.60;;
71910;SDS011;59783;52.232;5.170;2023-02-15T08:33:41;69.37;;;41.33;;
71910;SDS011;59783;52.232;5.170;2023-02-15T08:36:08;67.75;;;42.75;;
71910;SDS011;59783;52.232;5.170;2023-02-15T08:38:33;72.88;;;41.25;;
71910;SDS011;59783;52.232;5.170;2023-02-15T08:41:08;68.47;;;39.88;;
71910;SDS011;59783;52.232;5.170;2023-02-15T08:43:34;71.70;;;42.53;;
71910;SDS011;59783;52.232;5.170;2023-02-15T08:45:59;66.90;;;40.90;;
71910;SDS011;59783;52.232;5.170;2023-02-15T08:48:24;70.37;;;42.37;;
71910;SDS011;59783;52.232;5.170;2023-02-15T08:50:49;69.10;;;42.73;;
71910;SDS011;59783;52.232;5.170;2023-02-15T08:53:14;69.10;;;41.50;;
71910;SDS011;59783;52.232;5.170;2023-02-15T08:55:40;68.03;;;41.90;;
71910;SDS011;59783;52.232;5.170;2023-02-15T08:58:05;72.03;;;40.83;;
71910;SDS011;59783;52.232;5.170;2023-02-15T09:00:30;70.93;;;41.83;;
71910;SDS011;59783;52.232;5.170;2023-02-15T09:02:56;76.07;;;41.97;;
71910;SDS011;59783;52.232;5.170;2023-02-15T09:05:21;72.95;;;44.03;;
71910;SDS011;59783;52.232;5.170;2023-02-15T09:07:46;77.47;;;43.27;;
71910;SDS011;59783;52.232;5.170;2023-02-15T09:10:11;78.63;;;43.70;;
71910;SDS011;59783;52.232;5.170;2023-02-15T09:12:37;74.50;;;42.37;;
71910;SDS011;59783;52.232;5.170;2023-02-15T09:15:02;80.80;;;46.07;;
71910;SDS011;59783;52.232;5.170;2023-02-15T09:17:27;79.57;;;45.13;;
71910;SDS011;59783;52.232;5.170;2023-02-15T09:19:52;74.50;;;44.03;;
71910;SDS011;59783;52.232;5.170;2023-02-15T09:22:17;73.33;;;41.87;;
71910;SDS011;59783;52.232;5.170;2023-02-15T09:24:43;72.57;;;42.17;;
71910;SDS011;59783;52.232;5.170;2023-02-15T09:27:08;68.23;;;41.60;;
71910;SDS011;59783;52.232;5.170;2023-02-15T09:29:33;69.30;;;41.07;;
71910;SDS011;59783;52.232;5.170;2023-02-15T09:31:58;64.93;;;40.22;;
71910;SDS011;59783;52.232;5.170;2023-02-15T09:34:23;63.77;;;39.27;;
71910;SDS011;59783;52.232;5.170;2023-02-15T09:36:49;63.13;;;40.30;;
71910;SDS011;59783;52.232;5.170;2023-02-15T09:39:15;65.00;;;38.63;;
71910;SDS011;59783;52.232;5.170;2023-02-15T09:49:02;64.37;;;39.77;;
71910;SDS011;59783;52.232;5.170;2023-02-15T09:55:15;69.57;;;41.05;;
71910;SDS011;59783;52.232;5.170;2023-02-15T10:02:20;66.80;;;41.58;;
71910;SDS011;59783;52.232;5.170;2023-02-15T10:27:44;70.68;;;41.95;;
71910;SDS011;59783;52.232;5.170;2023-02-15T10:30:12;68.47;;;42.65;;
71910;SDS011;59783;52.232;5.170;2023-02-15T10:46:55;65.22;;;42.53;;
71910;SDS011;59783;52.232;5.170;2023-02-15T10:56:53;65.30;;;41.10;;
71910;SDS011;59783;52.232;5.170;2023-02-15T10:59:31;65.65;;;42.67;;
71910;SDS011;59783;52.232;5.170;2023-02-15T11:02:20;73.78;;;44.90;;
71910;SDS011;59783;52.232;5.170;2023-02-15T11:04:47;68.57;;;43.10;;
71910;SDS011;59783;52.232;5.170;2023-02-15T11:07:25;64.47;;;42.83;;
71910;SDS011;59783;52.232;5.170;2023-02-15T11:09:51;62.67;;;42.58;;
71910;SDS011;59783;52.232;5.170;2023-02-15T11:12:21;65.43;;;42.35;;
71910;SDS011;59783;52.232;5.170;2023-02-15T11:17:43;69.03;;;41.88;;
71910;SDS011;59783;52.232;5.170;2023-02-15T11:25:17;64.35;;;40.55;;
71910;SDS011;59783;52.232;5.170;2023-02-15T11:27:43;65.88;;;44.67;;
71910;SDS011;59783;52.232;5.170;2023-02-15T11:30:11;68.35;;;44.75;;
71910;SDS011;59783;52.232;5.170;2023-02-15T11:32:43;64.70;;;42.45;;
71910;SDS011;59783;52.232;5.170;2023-02-15T11:37:46;66.43;;;45.85;;
71910;SDS011;59783;52.232;5.170;2023-02-15T11:40:20;63.83;;;42.65;;
71910;SDS011;59783;52.232;5.170;2023-02-15T11:45:19;70.47;;;45.60;;
71910;SDS011;59783;52.232;5.170;2023-02-15T11:47:46;71.20;;;43.00;;
71910;SDS011;59783;52.232;5.170;2023-02-15T11:50:15;77.43;;;44.80;;
71910;SDS011;59783;52.232;5.170;2023-02-15T11:52:41;75.43;;;44.45;;
71910;SDS011;59783;52.232;5.170;2023-02-15T11:55:11;74.83;;;44.37;;
71910;SDS011;59783;52.232;5.170;2023-02-15T11:57:38;72.45;;;43.22;;
71910;SDS011;59783;52.232;5.170;2023-02-15T12:02:30;66.82;;;42.28;;
71910;SDS011;59783;52.232;5.170;2023-02-15T12:04:58;65.07;;;43.05;;
71910;SDS011;59783;52.232;5.170;2023-02-15T12:07:27;65.00;;;41.28;;
71910;SDS011;59783;52.232;5.170;2023-02-15T12:12:39;69.05;;;43.10;;
71910;SDS011;59783;52.232;5.170;2023-02-15T12:15:05;74.40;;;40.73;;
71910;SDS011;59783;52.232;5.170;2023-02-15T12:18:15;71.88;;;44.13;;
71910;SDS011;59783;52.232;5.170;2023-02-15T12:22:46;74.57;;;43.17;;
71910;SDS011;59783;52.232;5.170;2023-02-15T12:25:26;71.43;;;42.50;;
71910;SDS011;59783;52.232;5.170;2023-02-15T12:27:54;66.32;;;42.15;;
71910;SDS011;59783;52.232;5.170;2023-02-15T12:30:22;68.60;;;42.08;;
71910;SDS011;59783;52.232;5.170;2023-02-15T12:32:52;70.60;;;41.53;;
71910;SDS011;59783;52.232;5.170;2023-02-15T12:38:23;71.35;;;43.72;;
71910;SDS011;59783;52.232;5.170;2023-02-15T12:40:40;68.53;;;43.45;;
71910;SDS011;59783;52.232;5.170;2023-02-15T12:43:23;68.70;;;43.28;;
71910;SDS011;59783;52.232;5.170;2023-02-15T12:45:49;68.25;;;42.88;;
71910;SDS011;59783;52.232;5.170;2023-02-15T12:48:16;75.13;;;45.00;;
71910;SDS011;59783;52.232;5.170;2023-02-15T12:50:51;70.78;;;44.60;;
71910;SDS011;59783;52.232;5.170;2023-02-15T12:53:17;70.97;;;45.20;;
71910;SDS011;59783;52.232;5.170;2023-02-15T12:58:24;68.32;;;41.83;;
71910;SDS011;59783;52.232;5.170;2023-02-15T13:03:33;68.68;;;41.83;;
71910;SDS011;59783;52.232;5.170;2023-02-15T13:05:59;69.30;;;43.25;;
71910;SDS011;59783;52.232;5.170;2023-02-15T13:11:04;66.22;;;40.75;;
71910;SDS011;59783;52.232;5.170;2023-02-15T13:13:32;72.45;;;43.17;;
71910;SDS011;59783;52.232;5.170;2023-02-15T13:15:59;69.40;;;45.50;;
71910;SDS011;59783;52.232;5.170;2023-02-15T13:18:31;74.30;;;42.78;;
71910;SDS011;59783;52.232;5.170;2023-02-15T13:20:58;71.35;;;43.45;;
71910;SDS011;59783;52.232;5.170;2023-02-15T13:23:28;75.97;;;45.47;;
71910;SDS011;59783;52.232;5.170;2023-02-15T13:25:54;65.75;;;41.65;;
71910;SDS011;59783;52.232;5.170;2023-02-15T13:28:21;70.25;;;42.50;;
71910;SDS011;59783;52.232;5.170;2023-02-15T13:30:47;71.13;;;44.08;;
71910;SDS011;59783;52.232;5.170;2023-02-15T13:35:50;69.60;;;42.95;;
71910;SDS011;59783;52.232;5.170;2023-02-15T13:38:22;75.00;;;42.08;;
71910;SDS011;59783;52.232;5.170;2023-02-15T13:40:55;77.07;;;43.90;;
71910;SDS011;59783;52.232;5.170;2023-02-15T13:43:25;74.50;;;45.10;;
71910;SDS011;59783;52.232;5.170;2023-02-15T13:48:24;68.43;;;42.30;;
71910;SDS011;59783;52.232;5.170;2023-02-15T13:51:03;68.47;;;41.72;;
71910;SDS011;59783;52.232;5.170;2023-02-15T13:55:56;70.40;;;42.90;;
71910;SDS011;59783;52.232;5.170;2023-02-15T13:58:43;68.30;;;41.63;;
71910;SDS011;59783;52.232;5.170;2023-02-15T14:01:24;71.32;;;42.13;;
71910;SDS011;59783;52.232;5.170;2023-02-15T14:21:49;71.50;;;43.78;;
71910;SDS011;59783;52.232;5.170;2023-02-15T14:24:18;67.50;;;42.28;;
71910;SDS011;59783;52.232;5.170;2023-02-15T14:26:53;78.53;;;44.92;;
71910;SDS011;59783;52.232;5.170;2023-02-15T14:34:18;74.78;;;43.33;;
71910;SDS011;59783;52.232;5.170;2023-02-15T14:36:44;69.75;;;42.78;;
71910;SDS011;59783;52.232;5.170;2023-02-15T14:42:15;68.88;;;42.78;;
71910;SDS011;59783;52.232;5.170;2023-02-15T14:44:53;71.50;;;43.55;;
71910;SDS011;59783;52.232;5.170;2023-02-15T14:47:27;77.18;;;43.80;;
71910;SDS011;59783;52.232;5.170;2023-02-15T14:49:55;74.07;;;43.53;;
71910;SDS011;59783;52.232;5.170;2023-02-15T14:52:20;74.50;;;44.65;;
71910;SDS011;59783;52.232;5.170;2023-02-15T15:04:34;72.90;;;46.50;;
71910;SDS011;59783;52.232;5.170;2023-02-15T15:09:26;75.47;;;48.00;;
71910;SDS011;59783;52.232;5.170;2023-02-15T15:11:52;73.53;;;45.55;;
71910;SDS011;59783;52.232;5.170;2023-02-15T15:16:59;71.03;;;46.70;;
71910;SDS011;59783;52.232;5.170;2023-02-15T15:22:16;75.22;;;47.75;;
71910;SDS011;59783;52.232;5.170;2023-02-15T15:29:51;79.97;;;47.35;;
71910;SDS011;59783;52.232;5.170;2023-02-15T15:32:16;70.27;;;45.70;;
71910;SDS011;59783;52.232;5.170;2023-02-15T15:40:12;78.63;;;47.53;;
71910;SDS011;59783;52.232;5.170;2023-02-15T15:50:15;73.80;;;45.17;;
71910;SDS011;59783;52.232;5.170;2023-02-15T15:52:41;76.07;;;47.53;;
71910;SDS011;59783;52.232;5.170;2023-02-15T15:55:14;77.88;;;46.53;;
71910;SDS011;59783;52.232;5.170;2023-02-15T15:57:41;72.80;;;46.28;;
71910;SDS011;59783;52.232;5.170;2023-02-15T16:00:41;74.65;;;45.97;;
71910;SDS011;59783;52.232;5.170;2023-02-15T16:02:59;76.80;;;45.03;;
71910;SDS011;59783;52.232;5.170;2023-02-15T16:05:24;80.20;;;46.73;;
71910;SDS011;59783;52.232;5.170;2023-02-15T16:07:49;74.85;;;45.45;;
71910;SDS011;59783;52.232;5.170;2023-02-15T16:12:46;76.38;;;45.40;;
71910;SDS011;59783;52.232;5.170;2023-02-15T16:15:19;74.82;;;45.38;;
71910;SDS011;59783;52.232;5.170;2023-02-15T16:17:45;75.72;;;44.75;;
71910;SDS011;59783;52.232;5.170;2023-02-15T16:22:37;83.97;;;46.73;;
71910;SDS011;59783;52.232;5.170;2023-02-15T16:25:16;77.90;;;47.88;;
71910;SDS011;59783;52.232;5.170;2023-02-15T16:27:46;80.13;;;46.88;;
71910;SDS011;59783;52.232;5.170;2023-02-15T16:30:28;80.20;;;46.53;;
71910;SDS011;59783;52.232;5.170;2023-02-15T16:33:04;77.93;;;45.33;;
71910;SDS011;59783;52.232;5.170;2023-02-15T16:35:29;81.22;;;46.30;;
71910;SDS011;59783;52.232;5.170;2023-02-15T16:37:54;77.83;;;44.80;;
71910;SDS011;59783;52.232;5.170;2023-02-15T16:42:48;74.90;;;43.22;;
71910;SDS011;59783;52.232;5.170;2023-02-15T16:45:13;77.60;;;46.92;;
71910;SDS011;59783;52.232;5.170;2023-02-15T16:47:42;79.47;;;44.33;;
71910;SDS011;59783;52.232;5.170;2023-02-15T16:50:16;80.07;;;44.17;;
71910;SDS011;59783;52.232;5.170;2023-02-15T16:52:42;81.95;;;42.88;;
71910;SDS011;59783;52.232;5.170;2023-02-15T16:55:17;86.38;;;44.58;;
71910;SDS011;59783;52.232;5.170;2023-02-15T16:57:44;75.53;;;43.95;;
71910;SDS011;59783;52.232;5.170;2023-02-15T17:00:19;83.45;;;45.35;;
71910;SDS011;59783;52.232;5.170;2023-02-15T17:03:05;80.30;;;43.95;;
71910;SDS011;59783;52.232;5.170;2023-02-15T17:05:32;81.22;;;44.50;;
71910;SDS011;59783;52.232;5.170;2023-02-15T17:08:17;80.88;;;45.45;;
71910;SDS011;59783;52.232;5.170;2023-02-15T17:10:44;79.35;;;45.75;;
71910;SDS011;59783;52.232;5.170;2023-02-15T17:15:36;83.55;;;43.45;;
71910;SDS011;59783;52.232;5.170;2023-02-15T17:18:06;83.65;;;44.33;;
71910;SDS011;59783;52.232;5.170;2023-02-15T17:20:35;80.75;;;46.13;;
71910;SDS011;59783;52.232;5.170;2023-02-15T17:23:02;78.80;;;46.28;;
71910;SDS011;59783;52.232;5.170;2023-02-15T17:25:38;78.05;;;45.38;;
71910;SDS011;59783;52.232;5.170;2023-02-15T17:28:04;84.40;;;46.33;;
71910;SDS011;59783;52.232;5.170;2023-02-15T17:30:31;81.80;;;45.80;;
71910;SDS011;59783;52.232;5.170;2023-02-15T17:32:58;77.18;;;44.33;;
71910;SDS011;59783;52.232;5.170;2023-02-15T17:35:27;83.60;;;45.28;;
71910;SDS011;59783;52.232;5.170;2023-02-15T17:38:00;79.22;;;46.00;;
71910;SDS011;59783;52.232;5.170;2023-02-15T17:40:30;74.47;;;44.55;;
71910;SDS011;59783;52.232;5.170;2023-02-15T17:42:56;78.47;;;43.70;;
71910;SDS011;59783;52.232;5.170;2023-02-15T17:45:21;85.17;;;43.70;;
71910;SDS011;59783;52.232;5.170;2023-02-15T17:47:48;81.43;;;45.85;;